sensor_id;sensor_type;location;lat;lon;timestamp;temperature;humidity
1297;DHT22;641;48.492;9.184;2022-10-30T00:00:55;16.40;99.90
1297;DHT22;641;48.492;9.184;2022-10-30T00:03:21;16.00;99.90
1297;DHT22;641;48.492;9.184;2022-10-30T00:05:48;16.40;99.90
1297;DHT22;641;48.492;9.184;2022-10-30T00:08:16;16.40;99.90
1297;DHT22;641;48.492;9.184;2022-10-30T00:10:42;16.20;99.90
1297;DHT22;641;48.492;9.184;2022-10-30T00:13:09;16.00;99.90
1297;DHT22;641;48.492;9.184;2022-10-30T00:15:34;15.90;99.90
1297;DHT22;641;48.492;9.184;2022-10-30T00:18:01;16.30;99.90
1297;DHT22;641;48.492;9.184;2022-10-30T00:20:26;15.90;99.90
1297;DHT22;641;48.492;9.184;2022-10-30T00:22:52;15.90;99.90
1297;DHT22;641;48.492;9.184;2022-10-30T00:25:18;15.90;99.90
1297;DHT22;641;48.492;9.184;2022-10-30T00:27:43;15.80;99.90
1297;DHT22;641;48.492;9.184;2022-10-30T00:30:11;16.10;99.90
1297;DHT22;641;48.492;9.184;2022-10-30T00:32:36;15.80;99.90
1297;DHT22;641;48.492;9.184;2022-10-30T00:35:02;16.10;99.90
1297;DHT22;641;48.492;9.184;2022-10-30T00:37:28;15.90;99.90
1297;DHT22;641;48.492;9.184;2022-10-30T00:39:54;15.80;99.90
1297;DHT22;641;48.492;9.184;2022-10-30T00:42:19;15.80;99.90
1297;DHT22;641;48.492;9.184;2022-10-30T00:44:50;15.80;99.90
1297;DHT22;641;48.492;9.184;2022-10-30T00:47:24;15.80;99.90
1297;DHT22;641;48.492;9.184;2022-10-30T00:50:10;16.20;99.90
1297;DHT22;641;48.492;9.184;2022-10-30T00:52:56;15.70;99.90
1297;DHT22;641;48.492;9.184;2022-10-30T00:55:30;15.70;99.90
1297;DHT22;641;48.492;9.184;2022-10-30T00:57:58;16.10;99.90
1297;DHT22;641;48.492;9.184;2022-10-30T01:00:26;15.70;99.90
1297;DHT22;641;48.492;9.184;2022-10-30T01:02:53;16.10;99.90
1297;DHT22;641;48.492;9.184;2022-10-30T01:05:21;16.10;99.90
1297;DHT22;641;48.492;9.184;2022-10-30T01:07:48;15.80;99.90
1297;DHT22;641;48.492;9.184;2022-10-30T01:10:14;15.60;99.90
1297;DHT22;641;48.492;9.184;2022-10-30T01:12:40;15.90;99.90
1297;DHT22;641;48.492;9.184;2022-10-30T01:15:08;15.30;99.90
1297;DHT22;641;48.492;9.184;2022-10-30T01:20:57;15.20;99.90
1297;DHT22;641;48.492;9.184;2022-10-30T01:23:35;15.30;99.90
1297;DHT22;641;48.492;9.184;2022-10-30T01:34:18;15.60;99.90
1297;DHT22;641;48.492;9.184;2022-10-30T01:37:05;15.90;99.90
1297;DHT22;641;48.492;9.184;2022-10-30T01:39:36;15.50;99.90
1297;DHT22;641;48.492;9.184;2022-10-30T01:42:10;15.50;99.90
1297;DHT22;641;48.492;9.184;2022-10-30T01:44:36;15.70;99.90
1297;DHT22;641;48.492;9.184;2022-10-30T01:52:27;15.50;99.90
1297;DHT22;641;48.492;9.184;2022-10-30T01:57:42;15.50;99.90
1297;DHT22;641;48.492;9.184;2022-10-30T02:00:13;15.50;99.90
1297;DHT22;641;48.492;9.184;2022-10-30T02:02:40;15.50;99.90
1297;DHT22;641;48.492;9.184;2022-10-30T02:05:06;15.90;99.90
1297;DHT22;641;48.492;9.184;2022-10-30T02:07:34;15.50;99.90
1297;DHT22;641;48.492;9.184;2022-10-30T02:10:00;15.40;99.90
1297;DHT22;641;48.492;9.184;2022-10-30T02:12:25;15.70;99.90
1297;DHT22;641;48.492;9.184;2022-10-30T02:14:58;15.60;99.90
1297;DHT22;641;48.492;9.184;2022-10-30T02:17:24;15.40;99.90
1297;DHT22;641;48.492;9.184;2022-10-30T02:19:50;15.30;99.90
1297;DHT22;641;48.492;9.184;2022-10-30T02:22:16;15.50;99.90
1297;DHT22;641;48.492;9.184;2022-10-30T02:24:42;15.70;99.90
1297;DHT22;641;48.492;9.184;2022-10-30T02:27:08;15.70;99.90
1297;DHT22;641;48.492;9.184;2022-10-30T02:29:34;15.60;99.90
1297;DHT22;641;48.492;9.184;2022-10-30T02:32:00;15.60;99.90
1297;DHT22;641;48.492;9.184;2022-10-30T02:34:26;15.50;99.90
1297;DHT22;641;48.492;9.184;2022-10-30T02:36:51;15.70;99.90
1297;DHT22;641;48.492;9.184;2022-10-30T02:39:17;15.40;99.90
1297;DHT22;641;48.492;9.184;2022-10-30T02:41:44;15.40;99.90
1297;DHT22;641;48.492;9.184;2022-10-30T02:44:09;15.60;99.90
1297;DHT22;641;48.492;9.184;2022-10-30T02:46:35;15.70;99.90
1297;DHT22;641;48.492;9.184;2022-10-30T02:49:01;15.80;99.90
1297;DHT22;641;48.492;9.184;2022-10-30T02:51:27;15.60;99.90
1297;DHT22;641;48.492;9.184;2022-10-30T02:53:52;15.30;99.90
1297;DHT22;641;48.492;9.184;2022-10-30T02:56:18;15.40;99.90
1297;DHT22;641;48.492;9.184;2022-10-30T02:58:43;15.20;99.90
1297;DHT22;641;48.492;9.184;2022-10-30T03:01:12;15.60;99.90
1297;DHT22;641;48.492;9.184;2022-10-30T03:03:38;15.60;99.90
1297;DHT22;641;48.492;9.184;2022-10-30T03:06:06;15.20;99.90
1297;DHT22;641;48.492;9.184;2022-10-30T03:08:32;15.20;99.90
1297;DHT22;641;48.492;9.184;2022-10-30T03:11:04;15.60;99.90
1297;DHT22;641;48.492;9.184;2022-10-30T03:13:31;15.20;99.90
1297;DHT22;641;48.492;9.184;2022-10-30T03:16:05;15.70;99.90
1297;DHT22;641;48.492;9.184;2022-10-30T03:18:31;15.30;99.90
1297;DHT22;641;48.492;9.184;2022-10-30T03:20:58;15.50;99.90
1297;DHT22;641;48.492;9.184;2022-10-30T03:23:25;15.50;99.90
1297;DHT22;641;48.492;9.184;2022-10-30T03:25:55;15.80;99.90
1297;DHT22;641;48.492;9.184;2022-10-30T03:28:23;15.40;99.90
1297;DHT22;641;48.492;9.184;2022-10-30T03:30:49;15.70;99.90
1297;DHT22;641;48.492;9.184;2022-10-30T03:33:15;15.30;99.90
1297;DHT22;641;48.492;9.184;2022-10-30T03:35:43;15.60;99.90
1297;DHT22;641;48.492;9.184;2022-10-30T03:38:10;15.60;99.90
1297;DHT22;641;48.492;9.184;2022-10-30T03:40:35;15.20;99.90
1297;DHT22;641;48.492;9.184;2022-10-30T03:43:01;15.50;99.90
1297;DHT22;641;48.492;9.184;2022-10-30T03:45:26;15.60;99.90
1297;DHT22;641;48.492;9.184;2022-10-30T03:47:52;15.60;99.90
1297;DHT22;641;48.492;9.184;2022-10-30T03:50:17;15.90;99.90
1297;DHT22;641;48.492;9.184;2022-10-30T03:52:43;15.10;99.90
1297;DHT22;641;48.492;9.184;2022-10-30T03:55:08;15.10;99.90
1297;DHT22;641;48.492;9.184;2022-10-30T03:57:37;15.40;99.90
1297;DHT22;641;48.492;9.184;2022-10-30T04:00:04;15.00;99.90
1297;DHT22;641;48.492;9.184;2022-10-30T04:02:30;15.00;99.90
1297;DHT22;641;48.492;9.184;2022-10-30T04:04:55;15.20;99.90
1297;DHT22;641;48.492;9.184;2022-10-30T04:07:21;14.90;99.90
1297;DHT22;641;48.492;9.184;2022-10-30T04:09:46;15.20;99.90
1297;DHT22;641;48.492;9.184;2022-10-30T04:12:12;14.90;99.90
1297;DHT22;641;48.492;9.184;2022-10-30T04:14:37;15.20;99.90
1297;DHT22;641;48.492;9.184;2022-10-30T04:17:03;14.80;99.90
1297;DHT22;641;48.492;9.184;2022-10-30T04:19:30;14.70;99.90
1297;DHT22;641;48.492;9.184;2022-10-30T04:21:56;14.70;99.90
1297;DHT22;641;48.492;9.184;2022-10-30T04:24:22;14.70;99.90
1297;DHT22;641;48.492;9.184;2022-10-30T04:26:48;14.60;99.90
1297;DHT22;641;48.492;9.184;2022-10-30T04:29:13;14.70;99.90
1297;DHT22;641;48.492;9.184;2022-10-30T04:31:39;14.70;99.90
1297;DHT22;641;48.492;9.184;2022-10-30T04:34:04;14.60;99.90
1297;DHT22;641;48.492;9.184;2022-10-30T04:36:30;14.60;99.90
1297;DHT22;641;48.492;9.184;2022-10-30T04:38:59;14.60;99.90
1297;DHT22;641;48.492;9.184;2022-10-30T04:41:24;14.50;99.90
1297;DHT22;641;48.492;9.184;2022-10-30T04:43:50;14.40;99.90
1297;DHT22;641;48.492;9.184;2022-10-30T04:46:16;14.80;99.90
1297;DHT22;641;48.492;9.184;2022-10-30T04:48:43;14.30;99.90
1297;DHT22;641;48.492;9.184;2022-10-30T04:51:09;14.30;99.90
1297;DHT22;641;48.492;9.184;2022-10-30T04:53:36;14.30;99.90
1297;DHT22;641;48.492;9.184;2022-10-30T04:56:03;14.30;99.90
1297;DHT22;641;48.492;9.184;2022-10-30T04:58:29;14.30;99.90
1297;DHT22;641;48.492;9.184;2022-10-30T05:00:54;14.30;99.90
1297;DHT22;641;48.492;9.184;2022-10-30T05:03:22;14.30;99.90
1297;DHT22;641;48.492;9.184;2022-10-30T05:05:55;14.30;99.90
1297;DHT22;641;48.492;9.184;2022-10-30T05:08:21;14.20;99.90
1297;DHT22;641;48.492;9.184;2022-10-30T05:10:47;14.10;99.90
1297;DHT22;641;48.492;9.184;2022-10-30T05:13:12;14.10;99.90
1297;DHT22;641;48.492;9.184;2022-10-30T05:15:38;14.10;99.90
1297;DHT22;641;48.492;9.184;2022-10-30T05:18:04;14.00;99.90
1297;DHT22;641;48.492;9.184;2022-10-30T05:20:30;14.00;99.90
1297;DHT22;641;48.492;9.184;2022-10-30T05:22:56;13.90;99.90
1297;DHT22;641;48.492;9.184;2022-10-30T05:25:23;13.90;99.90
1297;DHT22;641;48.492;9.184;2022-10-30T05:27:48;13.90;99.90
1297;DHT22;641;48.492;9.184;2022-10-30T05:30:14;13.90;99.90
1297;DHT22;641;48.492;9.184;2022-10-30T05:32:40;13.90;99.90
1297;DHT22;641;48.492;9.184;2022-10-30T05:35:05;13.80;99.90
1297;DHT22;641;48.492;9.184;2022-10-30T05:37:31;13.70;99.90
1297;DHT22;641;48.492;9.184;2022-10-30T05:39:56;13.70;99.90
1297;DHT22;641;48.492;9.184;2022-10-30T05:42:22;13.80;99.90
1297;DHT22;641;48.492;9.184;2022-10-30T05:44:48;13.80;99.90
1297;DHT22;641;48.492;9.184;2022-10-30T05:47:13;14.20;99.90
1297;DHT22;641;48.492;9.184;2022-10-30T05:49:39;13.80;99.90
1297;DHT22;641;48.492;9.184;2022-10-30T05:52:04;13.80;99.90
1297;DHT22;641;48.492;9.184;2022-10-30T05:54:30;13.70;99.90
1297;DHT22;641;48.492;9.184;2022-10-30T05:56:56;14.10;99.90
1297;DHT22;641;48.492;9.184;2022-10-30T05:59:22;13.70;99.90
1297;DHT22;641;48.492;9.184;2022-10-30T06:01:48;13.70;99.90
1297;DHT22;641;48.492;9.184;2022-10-30T06:04:14;13.80;99.90
1297;DHT22;641;48.492;9.184;2022-10-30T06:06:39;14.10;99.90
1297;DHT22;641;48.492;9.184;2022-10-30T06:09:05;13.80;99.90
1297;DHT22;641;48.492;9.184;2022-10-30T06:11:30;13.70;99.90
1297;DHT22;641;48.492;9.184;2022-10-30T06:13:56;13.60;99.90
1297;DHT22;641;48.492;9.184;2022-10-30T06:16:21;13.60;99.90
1297;DHT22;641;48.492;9.184;2022-10-30T06:18:47;13.60;99.90
1297;DHT22;641;48.492;9.184;2022-10-30T06:21:13;13.70;99.90
1297;DHT22;641;48.492;9.184;2022-10-30T06:23:38;14.10;99.90
1297;DHT22;641;48.492;9.184;2022-10-30T06:26:04;14.10;99.90
1297;DHT22;641;48.492;9.184;2022-10-30T06:28:29;13.70;99.90
1297;DHT22;641;48.492;9.184;2022-10-30T06:30:55;13.70;99.90
1297;DHT22;641;48.492;9.184;2022-10-30T06:33:21;14.00;99.90
1297;DHT22;641;48.492;9.184;2022-10-30T06:35:49;13.80;99.90
1297;DHT22;641;48.492;9.184;2022-10-30T06:38:15;13.80;99.90
1297;DHT22;641;48.492;9.184;2022-10-30T06:40:41;14.20;99.90
1297;DHT22;641;48.492;9.184;2022-10-30T06:43:08;14.00;99.90
1297;DHT22;641;48.492;9.184;2022-10-30T06:45:33;14.10;99.90
1297;DHT22;641;48.492;9.184;2022-10-30T06:47:59;14.60;99.90
1297;DHT22;641;48.492;9.184;2022-10-30T06:50:26;14.20;99.90
1297;DHT22;641;48.492;9.184;2022-10-30T06:52:52;14.70;99.90
1297;DHT22;641;48.492;9.184;2022-10-30T06:55:19;14.90;99.90
1297;DHT22;641;48.492;9.184;2022-10-30T06:57:45;15.10;99.90
1297;DHT22;641;48.492;9.184;2022-10-30T07:00:11;14.60;99.90
1297;DHT22;641;48.492;9.184;2022-10-30T07:02:37;14.70;99.90
1297;DHT22;641;48.492;9.184;2022-10-30T07:05:03;14.80;99.90
1297;DHT22;641;48.492;9.184;2022-10-30T07:07:29;14.90;99.90
1297;DHT22;641;48.492;9.184;2022-10-30T07:09:54;14.90;99.90
1297;DHT22;641;48.492;9.184;2022-10-30T07:12:20;15.00;99.90
1297;DHT22;641;48.492;9.184;2022-10-30T07:14:45;15.40;99.90
1297;DHT22;641;48.492;9.184;2022-10-30T07:17:11;15.10;99.90
1297;DHT22;641;48.492;9.184;2022-10-30T07:19:36;15.50;99.90
1297;DHT22;641;48.492;9.184;2022-10-30T07:22:02;15.20;99.90
1297;DHT22;641;48.492;9.184;2022-10-30T07:24:28;15.30;99.90
1297;DHT22;641;48.492;9.184;2022-10-30T07:26:54;15.70;99.90
1297;DHT22;641;48.492;9.184;2022-10-30T07:29:20;15.30;99.90
1297;DHT22;641;48.492;9.184;2022-10-30T07:31:46;15.50;99.90
1297;DHT22;641;48.492;9.184;2022-10-30T07:34:12;16.00;99.90
1297;DHT22;641;48.492;9.184;2022-10-30T07:36:37;15.60;99.90
1297;DHT22;641;48.492;9.184;2022-10-30T07:39:03;15.60;99.90
1297;DHT22;641;48.492;9.184;2022-10-30T07:41:29;16.00;99.90
1297;DHT22;641;48.492;9.184;2022-10-30T07:43:54;15.80;99.90
1297;DHT22;641;48.492;9.184;2022-10-30T07:46:20;15.90;99.90
1297;DHT22;641;48.492;9.184;2022-10-30T07:48:46;15.70;99.90
1297;DHT22;641;48.492;9.184;2022-10-30T07:51:11;16.00;99.90
1297;DHT22;641;48.492;9.184;2022-10-30T07:53:39;15.90;99.90
1297;DHT22;641;48.492;9.184;2022-10-30T07:56:05;16.00;99.90
1297;DHT22;641;48.492;9.184;2022-10-30T07:58:30;16.10;99.90
1297;DHT22;641;48.492;9.184;2022-10-30T08:03:22;16.30;99.90
1297;DHT22;641;48.492;9.184;2022-10-30T08:05:48;16.50;99.90
1297;DHT22;641;48.492;9.184;2022-10-30T08:08:13;16.90;99.90
1297;DHT22;641;48.492;9.184;2022-10-30T08:10:39;16.80;99.90
1297;DHT22;641;48.492;9.184;2022-10-30T08:13:05;16.90;99.90
1297;DHT22;641;48.492;9.184;2022-10-30T08:15:30;16.60;99.90
1297;DHT22;641;48.492;9.184;2022-10-30T08:17:57;17.00;99.90
1297;DHT22;641;48.492;9.184;2022-10-30T08:20:23;17.10;99.90
1297;DHT22;641;48.492;9.184;2022-10-30T08:22:54;16.80;99.90
1297;DHT22;641;48.492;9.184;2022-10-30T08:25:22;16.90;99.90
1297;DHT22;641;48.492;9.184;2022-10-30T08:27:54;17.00;99.90
1297;DHT22;641;48.492;9.184;2022-10-30T08:30:21;17.30;99.90
1297;DHT22;641;48.492;9.184;2022-10-30T08:32:47;17.10;99.90
1297;DHT22;641;48.492;9.184;2022-10-30T08:35:12;17.00;99.90
1297;DHT22;641;48.492;9.184;2022-10-30T08:37:38;17.10;99.90
1297;DHT22;641;48.492;9.184;2022-10-30T08:40:04;17.30;99.90
1297;DHT22;641;48.492;9.184;2022-10-30T08:42:29;17.20;99.90
1297;DHT22;641;48.492;9.184;2022-10-30T08:44:55;17.60;99.90
1297;DHT22;641;48.492;9.184;2022-10-30T08:47:20;17.40;99.90
1297;DHT22;641;48.492;9.184;2022-10-30T08:49:46;17.70;99.90
1297;DHT22;641;48.492;9.184;2022-10-30T08:52:12;17.80;99.90
1297;DHT22;641;48.492;9.184;2022-10-30T08:54:37;17.60;99.90
1297;DHT22;641;48.492;9.184;2022-10-30T08:57:03;17.30;99.90
1297;DHT22;641;48.492;9.184;2022-10-30T08:59:28;17.80;99.90
1297;DHT22;641;48.492;9.184;2022-10-30T09:01:54;17.40;99.90
1297;DHT22;641;48.492;9.184;2022-10-30T09:04:20;17.70;99.90
1297;DHT22;641;48.492;9.184;2022-10-30T09:06:45;17.30;99.90
1297;DHT22;641;48.492;9.184;2022-10-30T09:09:11;17.30;99.90
1297;DHT22;641;48.492;9.184;2022-10-30T09:11:37;17.40;99.90
1297;DHT22;641;48.492;9.184;2022-10-30T09:14:03;17.50;99.90
1297;DHT22;641;48.492;9.184;2022-10-30T09:16:28;17.40;99.90
1297;DHT22;641;48.492;9.184;2022-10-30T09:18:54;17.50;99.90
1297;DHT22;641;48.492;9.184;2022-10-30T09:21:19;17.60;99.90
1297;DHT22;641;48.492;9.184;2022-10-30T09:23:45;17.60;99.90
1297;DHT22;641;48.492;9.184;2022-10-30T09:26:11;17.70;99.90
1297;DHT22;641;48.492;9.184;2022-10-30T09:28:36;17.60;99.90
1297;DHT22;641;48.492;9.184;2022-10-30T09:31:02;17.70;99.90
1297;DHT22;641;48.492;9.184;2022-10-30T09:33:28;17.80;99.90
1297;DHT22;641;48.492;9.184;2022-10-30T09:35:53;17.90;99.90
1297;DHT22;641;48.492;9.184;2022-10-30T09:38:19;18.10;99.90
1297;DHT22;641;48.492;9.184;2022-10-30T09:49:39;18.50;99.90
1297;DHT22;641;48.492;9.184;2022-10-30T09:52:24;18.70;99.90
1297;DHT22;641;48.492;9.184;2022-10-30T10:04:58;19.10;99.90
1297;DHT22;641;48.492;9.184;2022-10-30T10:07:40;19.20;99.90
1297;DHT22;641;48.492;9.184;2022-10-30T10:10:19;19.30;99.90
1297;DHT22;641;48.492;9.184;2022-10-30T10:12:49;19.50;99.90
1297;DHT22;641;48.492;9.184;2022-10-30T10:17:54;19.60;99.90
1297;DHT22;641;48.492;9.184;2022-10-30T10:20:31;19.70;99.90
1297;DHT22;641;48.492;9.184;2022-10-30T10:22:58;19.80;99.90
1297;DHT22;641;48.492;9.184;2022-10-30T10:25:26;19.90;99.90
1297;DHT22;641;48.492;9.184;2022-10-30T10:34:02;20.20;99.90
1297;DHT22;641;48.492;9.184;2022-10-30T10:36:46;20.20;99.90
1297;DHT22;641;48.492;9.184;2022-10-30T10:39:31;20.30;99.90
1297;DHT22;641;48.492;9.184;2022-10-30T10:42:12;20.40;99.90
1297;DHT22;641;48.492;9.184;2022-10-30T10:50:34;20.80;99.90
1297;DHT22;641;48.492;9.184;2022-10-30T10:53:50;20.80;99.90
1297;DHT22;641;48.492;9.184;2022-10-30T10:55:53;20.90;99.90
1297;DHT22;641;48.492;9.184;2022-10-30T10:58:32;21.00;99.90
1297;DHT22;641;48.492;9.184;2022-10-30T11:00:59;21.00;99.90
1297;DHT22;641;48.492;9.184;2022-10-30T11:03:31;21.00;99.90
1297;DHT22;641;48.492;9.184;2022-10-30T11:06:00;21.20;99.90
1297;DHT22;641;48.492;9.184;2022-10-30T11:08:31;20.80;99.90
1297;DHT22;641;48.492;9.184;2022-10-30T11:10:58;20.90;99.90
1297;DHT22;641;48.492;9.184;2022-10-30T11:13:41;21.20;99.90
1297;DHT22;641;48.492;9.184;2022-10-30T11:18:39;21.50;99.70
1297;DHT22;641;48.492;9.184;2022-10-30T11:21:09;21.60;99.40
1297;DHT22;641;48.492;9.184;2022-10-30T11:23:40;21.80;99.40
1297;DHT22;641;48.492;9.184;2022-10-30T11:29:32;22.10;99.10
1297;DHT22;641;48.492;9.184;2022-10-30T11:31:35;22.20;99.10
1297;DHT22;641;48.492;9.184;2022-10-30T11:34:22;22.10;98.90
1297;DHT22;641;48.492;9.184;2022-10-30T11:36:49;22.00;98.80
1297;DHT22;641;48.492;9.184;2022-10-30T11:39:26;22.00;99.20
1297;DHT22;641;48.492;9.184;2022-10-30T11:44:41;22.10;99.00
1297;DHT22;641;48.492;9.184;2022-10-30T11:47:09;22.30;98.80
1297;DHT22;641;48.492;9.184;2022-10-30T11:49:54;22.40;98.70
1297;DHT22;641;48.492;9.184;2022-10-30T11:52:23;22.50;98.60
1297;DHT22;641;48.492;9.184;2022-10-30T11:54:53;22.70;98.50
1297;DHT22;641;48.492;9.184;2022-10-30T11:59:55;23.00;98.40
1297;DHT22;641;48.492;9.184;2022-10-30T12:02:26;23.00;98.00
1297;DHT22;641;48.492;9.184;2022-10-30T12:04:55;23.20;97.60
1297;DHT22;641;48.492;9.184;2022-10-30T12:07:28;23.20;97.40
1297;DHT22;641;48.492;9.184;2022-10-30T12:09:54;23.30;97.60
1297;DHT22;641;48.492;9.184;2022-10-30T12:12:35;23.40;98.30
1297;DHT22;641;48.492;9.184;2022-10-30T12:15:28;23.20;98.00
1297;DHT22;641;48.492;9.184;2022-10-30T12:18:03;23.30;98.30
1297;DHT22;641;48.492;9.184;2022-10-30T12:20:31;23.30;98.40
1297;DHT22;641;48.492;9.184;2022-10-30T12:22:57;23.50;98.40
1297;DHT22;641;48.492;9.184;2022-10-30T12:25:32;23.50;98.30
1297;DHT22;641;48.492;9.184;2022-10-30T12:28:13;23.50;98.30
1297;DHT22;641;48.492;9.184;2022-10-30T12:30:53;23.60;97.70
1297;DHT22;641;48.492;9.184;2022-10-30T12:33:46;23.70;98.40
1297;DHT22;641;48.492;9.184;2022-10-30T12:36:17;23.70;97.90
1297;DHT22;641;48.492;9.184;2022-10-30T12:38:53;23.70;97.40
1297;DHT22;641;48.492;9.184;2022-10-30T12:41:44;23.80;97.30
1297;DHT22;641;48.492;9.184;2022-10-30T12:44:21;23.80;97.00
1297;DHT22;641;48.492;9.184;2022-10-30T12:47:01;23.80;97.30
1297;DHT22;641;48.492;9.184;2022-10-30T12:49:40;23.90;97.40
1297;DHT22;641;48.492;9.184;2022-10-30T12:57:23;24.10;97.00
1297;DHT22;641;48.492;9.184;2022-10-30T13:00:02;24.20;97.40
1297;DHT22;641;48.492;9.184;2022-10-30T13:07:49;24.40;97.30
1297;DHT22;641;48.492;9.184;2022-10-30T13:10:26;24.60;97.60
1297;DHT22;641;48.492;9.184;2022-10-30T13:12:57;24.50;97.00
1297;DHT22;641;48.492;9.184;2022-10-30T13:15:40;24.50;96.70
1297;DHT22;641;48.492;9.184;2022-10-30T13:18:25;24.50;96.60
1297;DHT22;641;48.492;9.184;2022-10-30T13:21:03;24.60;97.20
1297;DHT22;641;48.492;9.184;2022-10-30T13:23:43;24.60;97.30
1297;DHT22;641;48.492;9.184;2022-10-30T13:26:38;24.60;97.40
1297;DHT22;641;48.492;9.184;2022-10-30T13:29:41;24.60;97.40
1297;DHT22;641;48.492;9.184;2022-10-30T13:32:28;24.60;97.70
1297;DHT22;641;48.492;9.184;2022-10-30T13:38:04;24.60;97.70
1297;DHT22;641;48.492;9.184;2022-10-30T13:40:36;24.70;97.70
1297;DHT22;641;48.492;9.184;2022-10-30T13:43:21;24.60;97.60
1297;DHT22;641;48.492;9.184;2022-10-30T13:46:01;24.60;97.60
1297;DHT22;641;48.492;9.184;2022-10-30T13:48:41;24.50;97.80
1297;DHT22;641;48.492;9.184;2022-10-30T13:54:16;24.50;99.00
1297;DHT22;641;48.492;9.184;2022-10-30T13:56:44;24.50;99.00
1297;DHT22;641;48.492;9.184;2022-10-30T14:07:40;24.30;99.10
1297;DHT22;641;48.492;9.184;2022-10-30T14:15:24;24.20;99.90
1297;DHT22;641;48.492;9.184;2022-10-30T14:20:38;24.10;99.50
1297;DHT22;641;48.492;9.184;2022-10-30T14:23:12;24.10;99.90
1297;DHT22;641;48.492;9.184;2022-10-30T14:25:39;24.10;99.90
1297;DHT22;641;48.492;9.184;2022-10-30T14:28:05;24.00;99.90
1297;DHT22;641;48.492;9.184;2022-10-30T14:30:43;23.90;99.90
1297;DHT22;641;48.492;9.184;2022-10-30T14:34:21;23.90;99.90
1297;DHT22;641;48.492;9.184;2022-10-30T14:36:24;23.80;99.90
1297;DHT22;641;48.492;9.184;2022-10-30T14:41:25;23.70;99.90
1297;DHT22;641;48.492;9.184;2022-10-30T14:47:03;23.60;99.90
1297;DHT22;641;48.492;9.184;2022-10-30T14:49:43;23.50;99.90
1297;DHT22;641;48.492;9.184;2022-10-30T14:52:29;23.40;99.90
1297;DHT22;641;48.492;9.184;2022-10-30T15:05:50;23.10;99.90
1297;DHT22;641;48.492;9.184;2022-10-30T15:08:32;23.00;99.90
1297;DHT22;641;48.492;9.184;2022-10-30T15:11:04;23.00;99.90
1297;DHT22;641;48.492;9.184;2022-10-30T15:13:33;22.90;99.90
1297;DHT22;641;48.492;9.184;2022-10-30T15:16:01;22.90;99.90
1297;DHT22;641;48.492;9.184;2022-10-30T15:18:27;22.90;99.90
1297;DHT22;641;48.492;9.184;2022-10-30T15:20:54;22.80;99.90
1297;DHT22;641;48.492;9.184;2022-10-30T15:23:28;22.80;99.90
1297;DHT22;641;48.492;9.184;2022-10-30T15:25:58;22.70;99.90
1297;DHT22;641;48.492;9.184;2022-10-30T15:28:27;22.70;99.90
1297;DHT22;641;48.492;9.184;2022-10-30T15:31:02;22.60;99.90
1297;DHT22;641;48.492;9.184;2022-10-30T15:33:28;22.50;99.90
1297;DHT22;641;48.492;9.184;2022-10-30T15:35:56;22.50;99.90
1297;DHT22;641;48.492;9.184;2022-10-30T15:38:21;22.40;99.90
1297;DHT22;641;48.492;9.184;2022-10-30T15:40:47;22.40;99.90
1297;DHT22;641;48.492;9.184;2022-10-30T15:43:14;22.20;99.90
1297;DHT22;641;48.492;9.184;2022-10-30T15:45:42;22.20;99.90
1297;DHT22;641;48.492;9.184;2022-10-30T15:48:30;22.20;99.90
1297;DHT22;641;48.492;9.184;2022-10-30T15:51:00;22.00;99.90
1297;DHT22;641;48.492;9.184;2022-10-30T15:53:42;21.90;99.90
1297;DHT22;641;48.492;9.184;2022-10-30T15:56:24;21.80;99.90
1297;DHT22;641;48.492;9.184;2022-10-30T15:58:56;21.70;99.90
1297;DHT22;641;48.492;9.184;2022-10-30T16:01:33;21.60;99.90
1297;DHT22;641;48.492;9.184;2022-10-30T16:04:01;21.60;99.90
1297;DHT22;641;48.492;9.184;2022-10-30T16:06:29;21.50;99.90
1297;DHT22;641;48.492;9.184;2022-10-30T16:08:55;21.40;99.90
1297;DHT22;641;48.492;9.184;2022-10-30T16:11:22;21.30;99.90
1297;DHT22;641;48.492;9.184;2022-10-30T16:13:49;21.20;99.90
1297;DHT22;641;48.492;9.184;2022-10-30T16:16:26;21.10;99.90
1297;DHT22;641;48.492;9.184;2022-10-30T16:18:57;21.00;99.90
1297;DHT22;641;48.492;9.184;2022-10-30T16:21:23;21.00;99.90
1297;DHT22;641;48.492;9.184;2022-10-30T16:23:55;20.90;99.90
1297;DHT22;641;48.492;9.184;2022-10-30T16:26:25;21.00;99.90
1297;DHT22;641;48.492;9.184;2022-10-30T16:28:51;20.70;99.90
1297;DHT22;641;48.492;9.184;2022-10-30T16:31:17;21.00;99.90
1297;DHT22;641;48.492;9.184;2022-10-30T16:33:45;20.60;99.90
1297;DHT22;641;48.492;9.184;2022-10-30T16:36:13;20.60;99.90
1297;DHT22;641;48.492;9.184;2022-10-30T16:38:42;20.90;99.90
1297;DHT22;641;48.492;9.184;2022-10-30T16:41:08;20.60;99.90
1297;DHT22;641;48.492;9.184;2022-10-30T16:43:39;20.60;99.90
1297;DHT22;641;48.492;9.184;2022-10-30T16:48:47;20.60;99.90
1297;DHT22;641;48.492;9.184;2022-10-30T16:51:17;20.60;99.90
1297;DHT22;641;48.492;9.184;2022-10-30T16:53:46;20.60;99.90
1297;DHT22;641;48.492;9.184;2022-10-30T16:56:24;20.60;99.60
1297;DHT22;641;48.492;9.184;2022-10-30T16:58:52;20.50;99.30
1297;DHT22;641;48.492;9.184;2022-10-30T17:01:23;20.50;99.00
1297;DHT22;641;48.492;9.184;2022-10-30T17:03:50;20.50;98.90
1297;DHT22;641;48.492;9.184;2022-10-30T17:06:28;20.50;99.10
1297;DHT22;641;48.492;9.184;2022-10-30T17:08:59;20.30;99.30
1297;DHT22;641;48.492;9.184;2022-10-30T17:11:37;20.10;99.50
1297;DHT22;641;48.492;9.184;2022-10-30T17:14:20;20.00;99.70
1297;DHT22;641;48.492;9.184;2022-10-30T17:16:57;20.10;99.90
1297;DHT22;641;48.492;9.184;2022-10-30T17:21:57;19.40;99.90
1297;DHT22;641;48.492;9.184;2022-10-30T17:24:31;19.30;99.90
1297;DHT22;641;48.492;9.184;2022-10-30T17:26:59;19.20;99.90
1297;DHT22;641;48.492;9.184;2022-10-30T17:32:11;19.00;99.90
1297;DHT22;641;48.492;9.184;2022-10-30T17:34:39;19.00;99.90
1297;DHT22;641;48.492;9.184;2022-10-30T17:37:04;19.30;99.90
1297;DHT22;641;48.492;9.184;2022-10-30T17:39:30;19.20;99.90
1297;DHT22;641;48.492;9.184;2022-10-30T17:41:56;19.20;99.90
1297;DHT22;641;48.492;9.184;2022-10-30T17:44:23;19.10;99.90
1297;DHT22;641;48.492;9.184;2022-10-30T17:46:49;18.80;99.90
1297;DHT22;641;48.492;9.184;2022-10-30T17:49:34;18.90;99.90
1297;DHT22;641;48.492;9.184;2022-10-30T17:52:00;18.60;99.90
1297;DHT22;641;48.492;9.184;2022-10-30T17:54:26;18.60;99.90
1297;DHT22;641;48.492;9.184;2022-10-30T17:56:52;18.80;99.90
1297;DHT22;641;48.492;9.184;2022-10-30T17:59:18;18.40;99.90
1297;DHT22;641;48.492;9.184;2022-10-30T18:01:43;18.70;99.90
1297;DHT22;641;48.492;9.184;2022-10-30T18:04:14;18.30;99.90
1297;DHT22;641;48.492;9.184;2022-10-30T18:06:40;18.30;99.90
1297;DHT22;641;48.492;9.184;2022-10-30T18:09:06;18.60;99.90
1297;DHT22;641;48.492;9.184;2022-10-30T18:11:32;18.60;99.90
1297;DHT22;641;48.492;9.184;2022-10-30T18:13:57;18.40;99.90
1297;DHT22;641;48.492;9.184;2022-10-30T18:16:24;18.70;99.90
1297;DHT22;641;48.492;9.184;2022-10-30T18:18:50;18.70;99.90
1297;DHT22;641;48.492;9.184;2022-10-30T18:21:18;18.40;99.90
1297;DHT22;641;48.492;9.184;2022-10-30T18:23:44;18.40;99.90
1297;DHT22;641;48.492;9.184;2022-10-30T18:26:13;18.40;99.90
1297;DHT22;641;48.492;9.184;2022-10-30T18:28:39;18.50;99.90
1297;DHT22;641;48.492;9.184;2022-10-30T18:31:05;18.40;99.90
1297;DHT22;641;48.492;9.184;2022-10-30T18:33:31;18.60;99.90